logo
Search for airport 
image banner adimage banner adimage banner ad
image banner ad

LKKOSI - Kosice U Tabora

Located in Tábor, Czech Republic

ICAO - , IATA -

Data provided by Airmate  

General information

Coordinates: N49°19'5" E14°44'57"
Elevation is 1516 feet MSL.
 
View others Airports in South Bohemian Region

Operational data

Special qualification required
Current time UTC:
Current local time:
Weather at : - ( 0 km )
METAR: TXKF 171755Z 29008KT 270V340 9999 FEW020 22/17 Q1021
View NOTAMs / SUP AIP / TFR affecting this airport [VIEW]
Communications frequencies: [VIEW]

Runways:

RWY identifierQFULength (ft)Width (ft)SurfaceLDA (ft)
01131266GRASS1312
19185°131266GRASS1312

Airport contact information

Address: Tábor Czech Republic

Satellite view of LKKOSI